ADDS METAR Data INFO
IDs: Format: Raw Decoded Include TAF

Data at: 0730 UTC 18 Oct 2017

KMHK 180652Z AUTO 21009KT 10SM CLR 13/08 A3002 RMK AO2 SLP163 T01280078
KMHK 180552Z AUTO 22006KT 10SM CLR 12/07 A3003 RMK AO2 SLP167 T01170072 10178 20117 402440072 58005
KMHK 180452Z AUTO 21009KT 10SM CLR 14/08 A3005 RMK AO2 SLP171 T01440078
KMHK 180352Z AUTO 20008KT 10SM CLR 15/08 A3004 RMK AO2 SLP171 T01500083
KMHK 180252Z AUTO 20008KT 10SM CLR 16/08 A3005 RMK AO2 SLP171 T01560083 51008
KMHK 180152Z 20003KT 10SM CLR 14/08 A3004 RMK AO2 SLP172 T01440083
KMHK 180052Z 00000KT 10SM CLR 16/08 A3004 RMK AO2 SLP172 T01610083
KMHK 172352Z 21005KT 10SM CLR 18/09 A3002 RMK AO2 SLP165 T01780089 10244 20172 56005
KMHK 172252Z 23010KT 10SM CLR 23/09 A3002 RMK AO2 SLP165 T02280089
KMHK 172152Z 22010KT 10SM CLR 24/09 A3003 RMK AO2 SLP165 T02390089
KMHK 172052Z 21010KT 10SM CLR 24/09 A3004 RMK AO2 SLP168 T02440089 56023
KMHK 171952Z 22011G20KT 10SM CLR 24/08 A3005 RMK AO2 SLP172 T02390083
KMHK 171852Z 20015G19KT 10SM CLR 23/08 A3008 RMK AO2 SLP181 T02280078
KMHK 171752Z 22012KT 10SM CLR 22/08 A3011 RMK AO2 SLP192 T02170078 10217 20072 58015
KMHK 171652Z 24014KT 10SM CLR 19/07 A3013 RMK AO2 SLP200 T01940067
KMHK 171552Z 23016G22KT 10SM CLR 18/06 A3015 RMK AO2 SLP208 T01830061
KMHK 171452Z 21014KT 10SM CLR 16/06 A3015 RMK AO2 SLP209 T01610061 50000
KMHK 171352Z 20007KT 10SM CLR 12/06 A3016 RMK AO2 SLP214 T01220061
KMHK 171252Z 21004KT 10SM CLR 09/04 A3015 RMK AO2 SLP211 T00890044
KMHK 171152Z 00000KT 10SM CLR 08/04 A3015 RMK AO2 SLP211 T00830044 10133 20078 56001
KMHK 171052Z AUTO 00000KT 10SM CLR 08/05 A3016 RMK AO2 SLP210 T00830050
KMHK 170952Z AUTO 22005KT 10SM CLR 10/05 A3015 RMK AO2 SLP209 T01000050
KMHK 170852Z AUTO 22007KT 10SM CLR 11/05 A3016 RMK AO2 SLP209 T01110050 58009
KMHK 170752Z AUTO 21006KT 10SM CLR 11/06 A3018 RMK AO2 SLP216 T01110056
KMHK 170652Z AUTO 21006KT 10SM CLR 12/05 A3019 RMK AO2 SLP218 T01170050
KMHK 170552Z AUTO 22008KT 10SM CLR 13/05 A3019 RMK AO2 SLP218 T01330050 10150 20117 402330017 56007
KMHK 170452Z AUTO 21009KT 10SM CLR 14/05 A3019 RMK AO2 SLP219 T01390050
KMHK 170352Z AUTO 21007KT 10SM CLR 12/05 A3020 RMK AO2 SLP226 T01220050
KMHK 170252Z AUTO 21008KT 10SM CLR 14/05 A3021 RMK AO2 SLP230 T01390050 50003
KMHK 170152Z 21006KT 10SM CLR 13/05 A3021 RMK AO2 SLP233 T01330050
KMHK 170052Z 20005KT 10SM CLR 13/05 A3020 RMK AO2 SLP232 T01330050
KMHK 162352Z 20004KT 10SM CLR 16/05 A3020 RMK AO2 SLP229 T01560050 10233 20156 56009
KMHK 162252Z 21012KT 10SM CLR 21/04 A3020 RMK AO2 SLP229 T02060039
KMHK 162152Z 20013KT 10SM CLR 22/04 A3021 RMK AO2 SLP231 T02220044
KMHK 162052Z 21012G21KT 10SM CLR 23/04 A3022 RMK AO2 SLP234 T02280044 56035
KMHK 161952Z 20015G20KT 10SM CLR 23/04 A3025 RMK AO2 SLP243 T02280039